createdAt,value
2017-11-29T00:02:15.032Z,65.90
2017-11-29T00:04:41.735Z,66.00
2017-11-29T00:09:47.498Z,66.10
2017-11-29T00:12:14.231Z,65.80
2017-11-29T00:17:19.614Z,66.00
2017-11-29T00:19:46.291Z,65.80
2017-11-29T00:22:13.009Z,65.90
2017-11-29T00:24:39.676Z,66.00
2017-11-29T00:27:14.576Z,65.80
2017-11-29T00:29:41.380Z,65.80
2017-11-29T00:34:46.955Z,65.80
2017-11-29T00:37:15.032Z,65.90
2017-11-29T00:39:41.704Z,65.80
2017-11-29T00:42:08.425Z,66.00
2017-11-29T00:47:13.896Z,66.00
2017-11-29T00:49:40.581Z,65.80
2017-11-29T00:52:07.269Z,65.90
2017-11-29T00:54:33.933Z,65.80
2017-11-29T00:57:01.198Z,65.80
2017-11-29T00:59:27.886Z,65.70
2017-11-29T01:01:54.574Z,65.70
2017-11-29T01:04:21.662Z,65.80
2017-11-29T01:06:48.303Z,65.80
2017-11-29T01:09:14.977Z,65.80
2017-11-29T01:11:41.660Z,65.80
2017-11-29T01:14:08.450Z,65.70
2017-11-29T01:16:35.120Z,65.50
2017-11-29T01:19:02.263Z,65.80
2017-11-29T01:21:28.926Z,65.80
2017-11-29T01:23:55.601Z,65.50
2017-11-29T01:26:22.279Z,65.50
2017-11-29T01:47:22.157Z,65.40
2017-11-29T02:08:23.051Z,65.50
2017-11-29T02:16:07.885Z,65.30
2017-11-29T02:18:34.579Z,65.30
2017-11-29T02:21:01.235Z,65.30
2017-11-29T02:23:27.978Z,65.40
2017-11-29T02:25:55.060Z,65.40
2017-11-29T02:46:54.215Z,65.30
2017-11-29T03:07:54.210Z,65.10
2017-11-29T03:15:39.048Z,65.20
2017-11-29T03:18:05.760Z,65.20
2017-11-29T03:20:32.427Z,65.20
2017-11-29T03:22:59.092Z,65.20
2017-11-29T03:25:25.771Z,65.20
2017-11-29T03:27:52.431Z,65.10
2017-11-29T03:30:19.104Z,65.00
2017-11-29T03:32:45.778Z,65.10
2017-11-29T03:35:12.453Z,65.30
2017-11-29T03:37:39.109Z,65.10
2017-11-29T03:40:05.855Z,65.20
2017-11-29T03:42:32.518Z,65.20
2017-11-29T04:16:49.714Z,65.30
2017-11-29T04:22:01.174Z,65.30
2017-11-29T04:29:46.321Z,65.40
2017-11-29T04:32:13.063Z,65.20
2017-11-29T04:34:39.756Z,65.20
2017-11-29T04:37:06.454Z,65.40
2017-11-29T04:39:33.148Z,65.30
2017-11-29T04:41:59.896Z,65.40
2017-11-29T04:44:26.606Z,65.30
2017-11-29T05:00:14.685Z,65.20
2017-11-29T05:02:41.469Z,65.30
2017-11-29T05:07:47.082Z,65.30
2017-11-29T05:12:52.149Z,65.20
2017-11-29T05:15:18.837Z,65.20
2017-11-29T05:31:00.846Z,65.30
2017-11-29T05:33:27.504Z,65.20
2017-11-29T05:35:54.174Z,65.30
2017-11-29T05:38:20.846Z,65.20
2017-11-29T05:40:47.519Z,65.20
2017-11-29T05:43:14.194Z,65.20
2017-11-29T05:45:40.872Z,65.20
2017-11-29T05:48:07.539Z,65.20
2017-11-29T05:50:34.224Z,65.20
2017-11-29T05:53:00.880Z,65.30
2017-11-29T05:55:27.575Z,65.20
2017-11-29T05:57:54.640Z,65.20
2017-11-29T06:00:21.307Z,65.20
2017-11-29T06:02:47.988Z,65.20
2017-11-29T06:05:14.696Z,65.20
2017-11-29T06:07:41.479Z,65.30
2017-11-29T06:10:08.547Z,65.20
2017-11-29T06:12:35.241Z,65.10
2017-11-29T06:15:01.912Z,65.20
2017-11-29T06:30:44.633Z,65.20
2017-11-29T06:51:45.735Z,65.00
2017-11-29T07:02:09.852Z,65.10
2017-11-29T07:04:36.519Z,65.10
2017-11-29T07:07:03.199Z,65.10
2017-11-29T07:12:08.217Z,65.00
2017-11-29T07:14:34.924Z,65.10
2017-11-29T07:17:01.595Z,65.10
2017-11-29T07:19:33.183Z,65.10
2017-11-29T07:21:59.862Z,65.10
2017-11-29T07:24:26.551Z,65.10
2017-11-29T07:27:02.887Z,65.10
2017-11-29T07:29:29.630Z,64.90
2017-11-29T07:31:56.694Z,64.90
2017-11-29T07:34:23.361Z,64.90
2017-11-29T07:36:50.039Z,64.90
2017-11-29T07:39:26.773Z,64.90
2017-11-29T07:41:53.439Z,65.10
2017-11-29T07:44:20.111Z,64.90
2017-11-29T08:02:42.003Z,64.90
2017-11-29T08:05:08.721Z,65.00
2017-11-29T08:07:35.408Z,65.00
2017-11-29T08:10:02.094Z,65.00
2017-11-29T08:12:28.800Z,65.00
2017-11-29T08:14:55.476Z,65.00
2017-11-29T08:33:14.517Z,65.00
2017-11-29T08:35:41.231Z,65.00
2017-11-29T08:38:07.935Z,65.00
2017-11-29T08:40:34.573Z,64.90
2017-11-29T08:43:01.228Z,64.90
2017-11-29T08:45:27.912Z,64.80
2017-11-29T08:47:54.596Z,64.80
2017-11-29T08:50:21.288Z,64.80
2017-11-29T08:52:47.964Z,64.90
2017-11-29T08:55:26.799Z,64.90
2017-11-29T08:57:57.211Z,64.80
2017-11-29T09:00:23.967Z,64.80
2017-11-29T09:02:50.615Z,64.90
2017-11-29T09:05:17.301Z,64.90
2017-11-29T09:07:43.955Z,64.90
2017-11-29T09:10:10.712Z,65.00
2017-11-29T09:15:16.313Z,65.00
2017-11-29T09:17:43.361Z,65.00
2017-11-29T09:20:10.037Z,65.00
2017-11-29T09:22:42.347Z,64.90
2017-11-29T09:25:10.280Z,64.90
2017-11-29T09:27:37.048Z,64.90
2017-11-29T09:30:03.701Z,65.00
2017-11-29T09:51:01.735Z,64.90
2017-11-29T10:12:02.568Z,64.80
2017-11-29T10:27:52.277Z,64.90
2017-11-29T10:30:26.855Z,64.80
2017-11-29T10:32:53.587Z,64.90
2017-11-29T10:35:20.252Z,64.80
2017-11-29T10:37:47.319Z,65.00
2017-11-29T10:40:14.039Z,65.00
2017-11-29T10:42:45.291Z,64.90
2017-11-29T10:45:12.003Z,64.80
2017-11-29T10:47:38.684Z,64.80
2017-11-29T10:50:05.345Z,64.90
2017-11-29T10:52:33.256Z,64.80
2017-11-29T10:54:59.934Z,64.80
2017-11-29T10:57:26.617Z,64.60
2017-11-29T10:59:53.377Z,64.90
2017-11-29T11:02:20.055Z,64.90
2017-11-29T11:41:59.477Z,64.70
2017-11-29T12:03:00.111Z,64.80
2017-11-29T12:42:35.092Z,65.20
2017-11-29T12:50:32.911Z,65.00
2017-11-29T12:52:59.612Z,65.10
2017-11-29T12:55:26.387Z,65.10
2017-11-29T12:57:53.048Z,65.10
2017-11-29T13:00:27.052Z,65.10
2017-11-29T13:02:53.730Z,64.70
2017-11-29T13:55:42.329Z,64.70
2017-11-29T14:06:06.696Z,64.90
2017-11-29T14:08:33.397Z,64.60
2017-11-29T14:11:00.153Z,64.60
2017-11-29T14:13:26.795Z,64.60
2017-11-29T14:15:53.490Z,64.60
2017-11-29T14:18:20.160Z,64.50
2017-11-29T14:20:46.867Z,64.70
2017-11-29T14:23:13.550Z,64.60
2017-11-29T14:25:40.245Z,64.80
2017-11-29T14:28:06.919Z,64.70
2017-11-29T14:30:33.622Z,64.40
2017-11-29T14:33:02.223Z,64.60
2017-11-29T14:35:28.880Z,64.50
2017-11-29T14:37:55.565Z,64.70
2017-11-29T14:40:22.617Z,64.10
2017-11-29T14:42:49.294Z,64.10
2017-11-29T14:45:15.954Z,64.50
2017-11-29T14:47:42.648Z,64.80
2017-11-29T14:50:09.333Z,64.60
2017-11-29T14:52:36.013Z,64.70
2017-11-29T14:55:02.697Z,64.50
2017-11-29T14:57:29.406Z,64.50
2017-11-29T14:59:56.076Z,64.80
2017-11-29T15:02:22.735Z,64.90
2017-11-29T15:04:49.457Z,64.90
2017-11-29T15:07:26.940Z,64.80
2017-11-29T15:09:53.594Z,64.80
2017-11-29T15:12:20.260Z,64.80
2017-11-29T15:14:46.939Z,64.90
2017-11-29T15:17:13.585Z,64.90
2017-11-29T15:19:40.283Z,65.00
2017-11-29T15:22:06.943Z,65.00
2017-11-29T15:24:33.664Z,64.90
2017-11-29T15:27:00.307Z,65.00
2017-11-29T15:29:26.999Z,65.10
2017-11-29T15:31:53.686Z,65.20
2017-11-29T15:34:20.352Z,65.10
2017-11-29T15:36:47.040Z,65.10
2017-11-29T15:39:13.702Z,65.10
2017-11-29T15:41:40.391Z,65.10
2017-11-29T15:44:07.062Z,65.10
2017-11-29T15:46:33.733Z,65.10
2017-11-29T15:49:04.207Z,65.30
2017-11-29T16:23:20.450Z,65.10
2017-11-29T16:25:47.510Z,65.00
2017-11-29T16:28:14.203Z,65.00
2017-11-29T16:30:40.887Z,65.00
2017-11-29T16:33:07.595Z,65.00
2017-11-29T16:35:34.245Z,65.00
2017-11-29T16:56:33.543Z,64.90
2017-11-29T17:17:34.971Z,64.70
2017-11-29T17:38:35.375Z,64.60
2017-11-29T17:41:02.051Z,64.60
2017-11-29T17:43:28.699Z,64.50
2017-11-29T17:45:55.371Z,64.50
2017-11-29T17:48:22.027Z,64.50
2017-11-29T17:50:48.732Z,64.50
2017-11-29T18:11:49.483Z,64.40
2017-11-29T18:38:08.936Z,63.90
2017-11-29T18:40:35.577Z,64.10
2017-11-29T18:43:02.270Z,64.10
2017-11-29T18:48:08.294Z,63.90
2017-11-29T18:50:34.947Z,63.90
2017-11-29T18:53:09.110Z,63.90
2017-11-29T19:08:49.782Z,63.80
2017-11-29T19:11:16.460Z,63.70
2017-11-29T19:13:43.109Z,63.60
2017-11-29T19:16:10.158Z,63.60
2017-11-29T19:18:36.835Z,63.60
2017-11-29T19:21:03.499Z,63.70
2017-11-29T19:23:30.165Z,63.60
2017-11-29T19:26:02.867Z,63.60
2017-11-29T19:47:00.206Z,63.60
2017-11-29T20:07:59.783Z,63.50
2017-11-29T20:10:26.479Z,63.50
2017-11-29T20:12:53.174Z,63.50
2017-11-29T20:15:19.898Z,63.60
2017-11-29T20:17:46.583Z,63.50
2017-11-29T20:20:13.253Z,63.50
2017-11-29T20:22:39.923Z,63.50
2017-11-29T20:25:06.587Z,63.40
2017-11-29T20:27:33.241Z,63.40
2017-11-29T20:30:00.018Z,63.50
2017-11-29T20:32:26.683Z,63.60
2017-11-29T20:34:53.328Z,63.60
2017-11-29T20:37:20.397Z,63.60
2017-11-29T20:58:21.784Z,63.50
2017-11-29T21:19:22.021Z,63.20
2017-11-29T21:40:23.383Z,63.10
2017-11-29T21:42:50.034Z,62.90
2017-11-29T21:45:16.694Z,63.10
2017-11-29T21:47:43.339Z,62.90
2017-11-29T21:50:10.020Z,63.10
2017-11-29T21:52:36.679Z,63.10
2017-11-29T21:55:03.372Z,63.10
2017-11-29T22:10:46.391Z,62.70
2017-11-29T22:13:13.054Z,62.60
2017-11-29T22:15:39.763Z,62.60
2017-11-29T22:18:06.414Z,62.60
2017-11-29T22:20:33.099Z,62.60
2017-11-29T22:22:59.754Z,62.60
2017-11-29T22:25:26.437Z,62.60
2017-11-29T22:30:31.575Z,62.50
2017-11-29T22:32:58.213Z,62.40
2017-11-29T22:35:24.883Z,62.40
2017-11-29T22:37:51.527Z,62.40
2017-11-29T22:58:51.220Z,62.10
2017-11-29T23:20:03.188Z,61.80
2017-11-29T23:22:29.914Z,61.90
2017-11-29T23:24:56.592Z,61.90
2017-11-29T23:27:23.272Z,61.70
2017-11-29T23:29:49.919Z,61.80
2017-11-29T23:32:16.586Z,61.70
2017-11-29T23:34:43.261Z,61.80
2017-11-29T23:37:09.923Z,61.70
2017-11-29T23:39:36.576Z,61.70
2017-11-29T23:42:03.260Z,61.80
2017-11-29T23:44:30.306Z,61.80
2017-11-29T23:46:56.948Z,61.80
2017-11-29T23:49:23.647Z,61.70
2017-11-29T23:51:50.291Z,61.70
2017-11-29T23:54:17.036Z,61.70
